sensor_id;sensor_type;location;lat;lon;timestamp;pressure;altitude;pressure_sealevel;temperature
63689;BMP280;54895;40.928;14.480;2023-04-07T00:02:25;101461.03;;;10.57
63689;BMP280;54895;40.928;14.480;2023-04-07T00:04:52;101449.25;;;10.41
63689;BMP280;54895;40.928;14.480;2023-04-07T00:07:18;101453.53;;;10.55
63689;BMP280;54895;40.928;14.480;2023-04-07T00:09:44;101445.16;;;10.24
63689;BMP280;54895;40.928;14.480;2023-04-07T00:12:11;101413.31;;;9.91
63689;BMP280;54895;40.928;14.480;2023-04-07T00:14:37;101421.91;;;10.41
63689;BMP280;54895;40.928;14.480;2023-04-07T00:17:03;101433.13;;;10.80
63689;BMP280;54895;40.928;14.480;2023-04-07T00:19:30;101422.16;;;10.43
63689;BMP280;54895;40.928;14.480;2023-04-07T00:21:58;101422.63;;;10.41
63689;BMP280;54895;40.928;14.480;2023-04-07T00:24:24;101412.75;;;10.25
63689;BMP280;54895;40.928;14.480;2023-04-07T00:26:51;101402.59;;;10.24
63689;BMP280;54895;40.928;14.480;2023-04-07T00:29:17;101423.47;;;10.77
63689;BMP280;54895;40.928;14.480;2023-04-07T00:31:44;101443.19;;;10.52
63689;BMP280;54895;40.928;14.480;2023-04-07T00:34:10;101398.34;;;9.82
63689;BMP280;54895;40.928;14.480;2023-04-07T00:36:37;101375.16;;;9.83
63689;BMP280;54895;40.928;14.480;2023-04-07T00:39:03;101382.31;;;10.15
63689;BMP280;54895;40.928;14.480;2023-04-07T00:41:33;101404.63;;;10.69
63689;BMP280;54895;40.928;14.480;2023-04-07T00:44:00;101393.50;;;9.92
63689;BMP280;54895;40.928;14.480;2023-04-07T00:46:27;101386.50;;;9.94
63689;BMP280;54895;40.928;14.480;2023-04-07T00:48:54;101374.16;;;9.97
63689;BMP280;54895;40.928;14.480;2023-04-07T00:51:20;101372.44;;;10.05
63689;BMP280;54895;40.928;14.480;2023-04-07T00:53:48;101372.97;;;10.03
63689;BMP280;54895;40.928;14.480;2023-04-07T00:56:15;101353.88;;;9.94
63689;BMP280;54895;40.928;14.480;2023-04-07T00:58:41;101340.84;;;9.85
63689;BMP280;54895;40.928;14.480;2023-04-07T01:01:14;101355.28;;;10.11
63689;BMP280;54895;40.928;14.480;2023-04-07T01:03:48;101363.19;;;10.33
63689;BMP280;54895;40.928;14.480;2023-04-07T01:06:20;101364.16;;;10.36
63689;BMP280;54895;40.928;14.480;2023-04-07T01:09:06;101369.91;;;10.40
63689;BMP280;54895;40.928;14.480;2023-04-07T01:11:55;101387.88;;;10.80
63689;BMP280;54895;40.928;14.480;2023-04-07T01:14:26;101400.47;;;10.74
63689;BMP280;54895;40.928;14.480;2023-04-07T01:17:02;101396.34;;;10.78
63689;BMP280;54895;40.928;14.480;2023-04-07T01:19:35;101413.50;;;10.83
63689;BMP280;54895;40.928;14.480;2023-04-07T01:22:07;101408.19;;;10.77
63689;BMP280;54895;40.928;14.480;2023-04-07T01:30:09;101363.94;;;10.23
63689;BMP280;54895;40.928;14.480;2023-04-07T01:32:38;101362.00;;;10.29
63689;BMP280;54895;40.928;14.480;2023-04-07T01:35:09;101363.88;;;10.34
63689;BMP280;54895;40.928;14.480;2023-04-07T01:37:37;101366.09;;;10.24
63689;BMP280;54895;40.928;14.480;2023-04-07T01:40:07;101358.00;;;9.95
63689;BMP280;54895;40.928;14.480;2023-04-07T01:42:34;101359.59;;;10.20
63689;BMP280;54895;40.928;14.480;2023-04-07T01:45:02;101329.50;;;9.84
63689;BMP280;54895;40.928;14.480;2023-04-07T01:47:30;101346.09;;;10.07
63689;BMP280;54895;40.928;14.480;2023-04-07T01:49:58;101329.22;;;9.88
63689;BMP280;54895;40.928;14.480;2023-04-07T01:52:26;101351.69;;;10.03
63689;BMP280;54895;40.928;14.480;2023-04-07T01:54:53;101355.44;;;10.35
63689;BMP280;54895;40.928;14.480;2023-04-07T01:57:20;101349.97;;;10.11
63689;BMP280;54895;40.928;14.480;2023-04-07T01:59:52;101347.81;;;10.04
63689;BMP280;54895;40.928;14.480;2023-04-07T02:02:22;101328.28;;;9.80
63689;BMP280;54895;40.928;14.480;2023-04-07T02:04:54;101323.47;;;9.73
63689;BMP280;54895;40.928;14.480;2023-04-07T02:07:28;101324.19;;;9.68
63689;BMP280;54895;40.928;14.480;2023-04-07T02:09:58;101348.03;;;10.12
63689;BMP280;54895;40.928;14.480;2023-04-07T02:12:27;101384.94;;;10.78
63689;BMP280;54895;40.928;14.480;2023-04-07T02:15:08;101364.97;;;9.98
63689;BMP280;54895;40.928;14.480;2023-04-07T02:17:39;101318.91;;;9.29
63689;BMP280;54895;40.928;14.480;2023-04-07T02:20:07;101300.78;;;9.44
63689;BMP280;54895;40.928;14.480;2023-04-07T02:22:38;101295.72;;;9.35
63689;BMP280;54895;40.928;14.480;2023-04-07T02:25:28;101328.00;;;10.00
63689;BMP280;54895;40.928;14.480;2023-04-07T02:27:56;101334.06;;;9.95
63689;BMP280;54895;40.928;14.480;2023-04-07T02:30:24;101331.88;;;9.88
63689;BMP280;54895;40.928;14.480;2023-04-07T02:32:51;101321.75;;;9.86
63689;BMP280;54895;40.928;14.480;2023-04-07T02:35:18;101326.81;;;9.90
63689;BMP280;54895;40.928;14.480;2023-04-07T02:37:45;101318.56;;;9.99
63689;BMP280;54895;40.928;14.480;2023-04-07T02:40:12;101333.22;;;10.22
63689;BMP280;54895;40.928;14.480;2023-04-07T02:42:38;101356.03;;;10.58
63689;BMP280;54895;40.928;14.480;2023-04-07T02:45:06;101360.75;;;10.35
63689;BMP280;54895;40.928;14.480;2023-04-07T02:47:34;101340.25;;;10.14
63689;BMP280;54895;40.928;14.480;2023-04-07T02:50:01;101338.81;;;10.13
63689;BMP280;54895;40.928;14.480;2023-04-07T02:52:28;101333.50;;;10.18
63689;BMP280;54895;40.928;14.480;2023-04-07T02:54:54;101348.03;;;10.12
63689;BMP280;54895;40.928;14.480;2023-04-07T02:57:25;101330.66;;;10.00
63689;BMP280;54895;40.928;14.480;2023-04-07T02:59:54;101336.91;;;10.08
63689;BMP280;54895;40.928;14.480;2023-04-07T03:02:26;101333.56;;;10.02
63689;BMP280;54895;40.928;14.480;2023-04-07T03:04:52;101316.69;;;9.83
63689;BMP280;54895;40.928;14.480;2023-04-07T03:07:22;101316.16;;;9.90
63689;BMP280;54895;40.928;14.480;2023-04-07T03:09:50;101307.94;;;9.88
63689;BMP280;54895;40.928;14.480;2023-04-07T03:12:18;101322.69;;;9.89
63689;BMP280;54895;40.928;14.480;2023-04-07T03:14:44;101328.97;;;9.91
63689;BMP280;54895;40.928;14.480;2023-04-07T03:17:10;101310.31;;;10.08
63689;BMP280;54895;40.928;14.480;2023-04-07T03:19:38;101359.91;;;10.57
63689;BMP280;54895;40.928;14.480;2023-04-07T03:22:04;101378.16;;;10.36
63689;BMP280;54895;40.928;14.480;2023-04-07T03:24:35;101368.94;;;10.37
63689;BMP280;54895;40.928;14.480;2023-04-07T03:27:03;101354.59;;;9.89
63689;BMP280;54895;40.928;14.480;2023-04-07T03:29:38;101325.16;;;9.76
63689;BMP280;54895;40.928;14.480;2023-04-07T03:32:07;101331.88;;;10.04
63689;BMP280;54895;40.928;14.480;2023-04-07T03:34:33;101348.75;;;10.07
63689;BMP280;54895;40.928;14.480;2023-04-07T03:37:00;101333.84;;;9.87
63689;BMP280;54895;40.928;14.480;2023-04-07T03:39:30;101330.66;;;10.00
63689;BMP280;54895;40.928;14.480;2023-04-07T03:41:59;101311.88;;;9.76
63689;BMP280;54895;40.928;14.480;2023-04-07T03:44:29;101291.13;;;9.69
63689;BMP280;54895;40.928;14.480;2023-04-07T03:46:55;101304.84;;;9.84
63689;BMP280;54895;40.928;14.480;2023-04-07T03:49:23;101292.28;;;9.84
63689;BMP280;54895;40.928;14.480;2023-04-07T03:51:51;101287.19;;;9.81
63689;BMP280;54895;40.928;14.480;2023-04-07T03:54:19;101291.03;;;9.91
63689;BMP280;54895;40.928;14.480;2023-04-07T03:56:45;101293.94;;;9.93
63689;BMP280;54895;40.928;14.480;2023-04-07T03:59:15;101286.25;;;9.73
63689;BMP280;54895;40.928;14.480;2023-04-07T04:01:53;101274.19;;;9.72
63689;BMP280;54895;40.928;14.480;2023-04-07T04:04:19;101262.16;;;9.60
63689;BMP280;54895;40.928;14.480;2023-04-07T04:06:48;101279.97;;;9.76
63689;BMP280;54895;40.928;14.480;2023-04-07T04:09:24;101289.38;;;9.93
63689;BMP280;54895;40.928;14.480;2023-04-07T04:11:50;101279.44;;;9.94
63689;BMP280;54895;40.928;14.480;2023-04-07T04:14:18;101283.72;;;10.08
63689;BMP280;54895;40.928;14.480;2023-04-07T04:16:53;101299.19;;;10.15
63689;BMP280;54895;40.928;14.480;2023-04-07T04:19:30;101315.75;;;10.43
63689;BMP280;54895;40.928;14.480;2023-04-07T04:22:00;101322.97;;;10.53
63689;BMP280;54895;40.928;14.480;2023-04-07T04:24:31;101323.72;;;10.43
63689;BMP280;54895;40.928;14.480;2023-04-07T04:27:02;101302.22;;;10.35
63689;BMP280;54895;40.928;14.480;2023-04-07T04:29:30;101314.53;;;10.44
63689;BMP280;54895;40.928;14.480;2023-04-07T04:31:59;101304.16;;;10.40
63689;BMP280;54895;40.928;14.480;2023-04-07T04:34:26;101331.13;;;10.61
63689;BMP280;54895;40.928;14.480;2023-04-07T04:36:54;101321.22;;;10.56
63689;BMP280;54895;40.928;14.480;2023-04-07T04:39:45;101375.69;;;11.25
63689;BMP280;54895;40.928;14.480;2023-04-07T04:42:14;101386.59;;;11.27
63689;BMP280;54895;40.928;14.480;2023-04-07T04:44:42;101372.75;;;10.99
63689;BMP280;54895;40.928;14.480;2023-04-07T04:47:08;101355.22;;;10.74
63689;BMP280;54895;40.928;14.480;2023-04-07T04:49:38;101362.25;;;10.77
63689;BMP280;54895;40.928;14.480;2023-04-07T04:52:04;101356.78;;;10.93
63689;BMP280;54895;40.928;14.480;2023-04-07T04:54:37;101408.34;;;11.31
63689;BMP280;54895;40.928;14.480;2023-04-07T04:57:04;101400.75;;;11.11
63689;BMP280;54895;40.928;14.480;2023-04-07T04:59:33;101396.47;;;10.97
63689;BMP280;54895;40.928;14.480;2023-04-07T05:02:02;101380.63;;;10.75
63689;BMP280;54895;40.928;14.480;2023-04-07T05:04:28;101372.41;;;10.73
63689;BMP280;54895;40.928;14.480;2023-04-07T05:07:15;101400.16;;;11.29
63689;BMP280;54895;40.928;14.480;2023-04-07T05:09:42;101398.69;;;11.28
63689;BMP280;54895;40.928;14.480;2023-04-07T05:12:08;101425.72;;;11.43
63689;BMP280;54895;40.928;14.480;2023-04-07T05:14:41;101415.44;;;11.23
63689;BMP280;54895;40.928;14.480;2023-04-07T05:17:08;101403.19;;;11.09
63689;BMP280;54895;40.928;14.480;2023-04-07T05:19:34;101410.81;;;11.29
63689;BMP280;54895;40.928;14.480;2023-04-07T05:22:09;101399.59;;;11.36
63689;BMP280;54895;40.928;14.480;2023-04-07T05:24:42;101416.94;;;11.48
63689;BMP280;54895;40.928;14.480;2023-04-07T05:27:11;101431.31;;;11.93
63689;BMP280;54895;40.928;14.480;2023-04-07T05:29:39;101437.44;;;11.88
63689;BMP280;54895;40.928;14.480;2023-04-07T05:32:10;101438.53;;;11.74
63689;BMP280;54895;40.928;14.480;2023-04-07T05:34:36;101443.66;;;11.96
63689;BMP280;54895;40.928;14.480;2023-04-07T05:37:06;101428.97;;;11.84
63689;BMP280;54895;40.928;14.480;2023-04-07T05:39:32;101431.44;;;12.06
63689;BMP280;54895;40.928;14.480;2023-04-07T05:42:00;101440.97;;;12.20
63689;BMP280;54895;40.928;14.480;2023-04-07T05:44:28;101459.81;;;12.70
63689;BMP280;54895;40.928;14.480;2023-04-07T05:46:55;101462.97;;;12.50
63689;BMP280;54895;40.928;14.480;2023-04-07T05:49:24;101443.94;;;11.92
63689;BMP280;54895;40.928;14.480;2023-04-07T05:51:59;101442.69;;;12.17
63689;BMP280;54895;40.928;14.480;2023-04-07T05:54:27;101453.28;;;12.47
63689;BMP280;54895;40.928;14.480;2023-04-07T05:56:53;101459.91;;;12.59
63689;BMP280;54895;40.928;14.480;2023-04-07T05:59:22;101477.38;;;12.97
63689;BMP280;54895;40.928;14.480;2023-04-07T06:01:50;101472.19;;;12.86
63689;BMP280;54895;40.928;14.480;2023-04-07T06:04:17;101484.16;;;12.98
63689;BMP280;54895;40.928;14.480;2023-04-07T06:06:46;101494.09;;;13.15
63689;BMP280;54895;40.928;14.480;2023-04-07T06:09:12;101482.34;;;13.06
63689;BMP280;54895;40.928;14.480;2023-04-07T06:11:38;101487.75;;;13.18
63689;BMP280;54895;40.928;14.480;2023-04-07T06:14:05;101490.63;;;13.39
63689;BMP280;54895;40.928;14.480;2023-04-07T06:16:31;101474.00;;;12.78
63689;BMP280;54895;40.928;14.480;2023-04-07T06:18:57;101464.81;;;12.55
63689;BMP280;54895;40.928;14.480;2023-04-07T06:21:24;101470.47;;;13.07
63689;BMP280;54895;40.928;14.480;2023-04-07T06:23:52;101478.34;;;13.30
63689;BMP280;54895;40.928;14.480;2023-04-07T06:26:18;101483.78;;;13.56
63689;BMP280;54895;40.928;14.480;2023-04-07T06:28:45;101495.13;;;13.75
63689;BMP280;54895;40.928;14.480;2023-04-07T06:31:11;101493.72;;;14.00
63689;BMP280;54895;40.928;14.480;2023-04-07T06:33:37;101508.63;;;14.22
63689;BMP280;54895;40.928;14.480;2023-04-07T06:36:04;101512.25;;;14.24
63689;BMP280;54895;40.928;14.480;2023-04-07T06:38:30;101508.09;;;14.49
63689;BMP280;54895;40.928;14.480;2023-04-07T06:40:56;101512.19;;;14.76
63689;BMP280;54895;40.928;14.480;2023-04-07T06:43:23;101505.72;;;14.92
63689;BMP280;54895;40.928;14.480;2023-04-07T06:46:09;101515.22;;;14.93
63689;BMP280;54895;40.928;14.480;2023-04-07T06:48:36;101521.34;;;15.01
63689;BMP280;54895;40.928;14.480;2023-04-07T06:51:02;101519.28;;;15.48
63689;BMP280;54895;40.928;14.480;2023-04-07T06:53:30;101507.59;;;15.66
63689;BMP280;54895;40.928;14.480;2023-04-07T06:56:08;101516.81;;;15.78
63689;BMP280;54895;40.928;14.480;2023-04-07T06:58:35;101507.84;;;16.04
63689;BMP280;54895;40.928;14.480;2023-04-07T07:01:03;101507.41;;;15.92
63689;BMP280;54895;40.928;14.480;2023-04-07T07:03:30;101513.28;;;16.19
63689;BMP280;54895;40.928;14.480;2023-04-07T07:05:57;101507.59;;;16.22
63689;BMP280;54895;40.928;14.480;2023-04-07T07:08:25;101510.50;;;16.39
63689;BMP280;54895;40.928;14.480;2023-04-07T07:10:52;101515.28;;;16.76
63689;BMP280;54895;40.928;14.480;2023-04-07T07:13:20;101519.59;;;16.79
63689;BMP280;54895;40.928;14.480;2023-04-07T07:15:49;101511.75;;;17.11
63689;BMP280;54895;40.928;14.480;2023-04-07T07:18:16;101508.50;;;16.97
63689;BMP280;54895;40.928;14.480;2023-04-07T07:20:42;101511.56;;;17.31
63689;BMP280;54895;40.928;14.480;2023-04-07T07:23:09;101514.25;;;17.61
63689;BMP280;54895;40.928;14.480;2023-04-07T07:25:35;101502.69;;;17.91
63689;BMP280;54895;40.928;14.480;2023-04-07T07:28:02;101496.56;;;17.90
63689;BMP280;54895;40.928;14.480;2023-04-07T07:30:29;101495.72;;;18.20
63689;BMP280;54895;40.928;14.480;2023-04-07T07:32:55;101503.75;;;17.95
63689;BMP280;54895;40.928;14.480;2023-04-07T07:35:22;101494.81;;;17.78
63689;BMP280;54895;40.928;14.480;2023-04-07T07:37:51;101504.47;;;17.88
63689;BMP280;54895;40.928;14.480;2023-04-07T07:40:17;101492.94;;;18.03
63689;BMP280;54895;40.928;14.480;2023-04-07T07:42:45;101500.03;;;18.23
63689;BMP280;54895;40.928;14.480;2023-04-07T07:45:12;101505.06;;;18.19
63689;BMP280;54895;40.928;14.480;2023-04-07T08:01:06;101492.09;;;18.88
63689;BMP280;54895;40.928;14.480;2023-04-07T08:05:39;101511.19;;;18.83
63689;BMP280;54895;40.928;14.480;2023-04-07T08:09:36;101506.28;;;18.33
63689;BMP280;54895;40.928;14.480;2023-04-07T08:18:25;101509.91;;;18.84
63689;BMP280;54895;40.928;14.480;2023-04-07T08:22:50;101509.00;;;19.30
63689;BMP280;54895;40.928;14.480;2023-04-07T08:56:21;101535.09;;;20.39
63689;BMP280;54895;40.928;14.480;2023-04-07T08:58:48;101531.28;;;20.78
63689;BMP280;54895;40.928;14.480;2023-04-07T09:01:15;101545.19;;;20.12
63689;BMP280;54895;40.928;14.480;2023-04-07T09:03:43;101544.94;;;20.80
63689;BMP280;54895;40.928;14.480;2023-04-07T09:06:10;101531.63;;;20.29
63689;BMP280;54895;40.928;14.480;2023-04-07T09:08:36;101537.50;;;19.92
63689;BMP280;54895;40.928;14.480;2023-04-07T09:11:03;101529.66;;;19.52
63689;BMP280;54895;40.928;14.480;2023-04-07T09:13:29;101537.28;;;19.80
63689;BMP280;54895;40.928;14.480;2023-04-07T09:15:58;101533.16;;;19.79
63689;BMP280;54895;40.928;14.480;2023-04-07T09:18:27;101532.09;;;18.99
63689;BMP280;54895;40.928;14.480;2023-04-07T09:21:03;101532.97;;;18.53
63689;BMP280;54895;40.928;14.480;2023-04-07T09:23:32;101525.56;;;18.85
63689;BMP280;54895;40.928;14.480;2023-04-07T09:25:59;101530.25;;;19.26
63689;BMP280;54895;40.928;14.480;2023-04-07T09:28:46;101530.25;;;19.26
63689;BMP280;54895;40.928;14.480;2023-04-07T09:31:13;101532.72;;;18.90
63689;BMP280;54895;40.928;14.480;2023-04-07T09:33:40;101511.06;;;18.49
63689;BMP280;54895;40.928;14.480;2023-04-07T09:36:06;101509.03;;;18.57
63689;BMP280;54895;40.928;14.480;2023-04-07T09:38:34;101509.41;;;18.22
63689;BMP280;54895;40.928;14.480;2023-04-07T09:41:19;101509.91;;;18.84
63689;BMP280;54895;40.928;14.480;2023-04-07T09:43:46;101514.56;;;19.49
63689;BMP280;54895;40.928;14.480;2023-04-07T09:46:15;101507.22;;;19.25
63689;BMP280;54895;40.928;14.480;2023-04-07T09:48:43;101518.16;;;18.62
63689;BMP280;54895;40.928;14.480;2023-04-07T09:51:13;101520.88;;;19.10
63689;BMP280;54895;40.928;14.480;2023-04-07T09:53:48;101517.84;;;18.50
63689;BMP280;54895;40.928;14.480;2023-04-07T09:56:16;101510.66;;;18.53
63689;BMP280;54895;40.928;14.480;2023-04-07T09:58:45;101523.63;;;18.47
63689;BMP280;54895;40.928;14.480;2023-04-07T10:01:13;101514.28;;;18.48
63689;BMP280;54895;40.928;14.480;2023-04-07T10:03:42;101500.13;;;18.40
63689;BMP280;54895;40.928;14.480;2023-04-07T10:06:09;101502.94;;;17.48
63689;BMP280;54895;40.928;14.480;2023-04-07T10:08:37;101501.69;;;17.64
63689;BMP280;54895;40.928;14.480;2023-04-07T10:11:04;101503.16;;;19.00
63689;BMP280;54895;40.928;14.480;2023-04-07T10:13:33;101512.63;;;19.25
63689;BMP280;54895;40.928;14.480;2023-04-07T10:16:05;101521.47;;;20.20
63689;BMP280;54895;40.928;14.480;2023-04-07T10:18:33;101528.66;;;20.61
63689;BMP280;54895;40.928;14.480;2023-04-07T10:21:06;101526.03;;;20.18
63689;BMP280;54895;40.928;14.480;2023-04-07T10:23:39;101523.00;;;20.40
63689;BMP280;54895;40.928;14.480;2023-04-07T10:26:09;101536.28;;;20.02
63689;BMP280;54895;40.928;14.480;2023-04-07T10:28:40;101531.84;;;20.41
63689;BMP280;54895;40.928;14.480;2023-04-07T10:31:09;101505.25;;;20.37
63689;BMP280;54895;40.928;14.480;2023-04-07T10:33:50;101506.63;;;19.51
63689;BMP280;54895;40.928;14.480;2023-04-07T10:36:18;101512.59;;;19.50
63689;BMP280;54895;40.928;14.480;2023-04-07T10:41:38;101503.25;;;19.09
63689;BMP280;54895;40.928;14.480;2023-04-07T10:47:05;101498.94;;;18.26
63689;BMP280;54895;40.928;14.480;2023-04-07T10:49:33;101462.19;;;17.74
63689;BMP280;54895;40.928;14.480;2023-04-07T10:52:20;101495.91;;;17.75
63689;BMP280;54895;40.928;14.480;2023-04-07T11:00:38;101488.59;;;18.15
63689;BMP280;54895;40.928;14.480;2023-04-07T11:03:11;101505.81;;;19.07
63689;BMP280;54895;40.928;14.480;2023-04-07T11:05:41;101506.78;;;19.70
63689;BMP280;54895;40.928;14.480;2023-04-07T11:08:07;101504.25;;;19.72
63689;BMP280;54895;40.928;14.480;2023-04-07T11:10:34;101508.19;;;20.05
63689;BMP280;54895;40.928;14.480;2023-04-07T11:13:04;101505.03;;;19.65
63689;BMP280;54895;40.928;14.480;2023-04-07T11:15:32;101504.47;;;20.63
63689;BMP280;54895;40.928;14.480;2023-04-07T11:18:19;101491.31;;;20.86
63689;BMP280;54895;40.928;14.480;2023-04-07T11:20:47;101494.22;;;20.62
63689;BMP280;54895;40.928;14.480;2023-04-07T11:23:15;101488.19;;;20.89
63689;BMP280;54895;40.928;14.480;2023-04-07T11:25:43;101494.16;;;20.88
63689;BMP280;54895;40.928;14.480;2023-04-07T11:28:11;101480.34;;;20.12
63689;BMP280;54895;40.928;14.480;2023-04-07T11:30:44;101489.47;;;19.39
63689;BMP280;54895;40.928;14.480;2023-04-07T11:33:16;101481.78;;;19.53
63689;BMP280;54895;40.928;14.480;2023-04-07T11:35:49;101491.13;;;19.52
63689;BMP280;54895;40.928;14.480;2023-04-07T11:38:17;101483.94;;;19.37
63689;BMP280;54895;40.928;14.480;2023-04-07T11:40:43;101488.66;;;19.80
63689;BMP280;54895;40.928;14.480;2023-04-07T11:43:18;101482.16;;;19.32
63689;BMP280;54895;40.928;14.480;2023-04-07T11:46:02;101490.00;;;18.79
63689;BMP280;54895;40.928;14.480;2023-04-07T11:48:29;101482.28;;;19.00
63689;BMP280;54895;40.928;14.480;2023-04-07T11:50:56;101490.06;;;19.13
63689;BMP280;54895;40.928;14.480;2023-04-07T11:53:33;101468.19;;;19.43
63689;BMP280;54895;40.928;14.480;2023-04-07T11:56:08;101478.50;;;19.88
63689;BMP280;54895;40.928;14.480;2023-04-07T11:58:35;101465.25;;;20.09
63689;BMP280;54895;40.928;14.480;2023-04-07T12:01:04;101468.53;;;19.91
63689;BMP280;54895;40.928;14.480;2023-04-07T12:03:35;101463.03;;;19.55
63689;BMP280;54895;40.928;14.480;2023-04-07T12:06:05;101465.81;;;19.64
63689;BMP280;54895;40.928;14.480;2023-04-07T12:08:37;101459.72;;;19.90
63689;BMP280;54895;40.928;14.480;2023-04-07T12:11:04;101466.63;;;20.27
63689;BMP280;54895;40.928;14.480;2023-04-07T12:13:31;101453.03;;;20.08
63689;BMP280;54895;40.928;14.480;2023-04-07T12:15:58;101451.63;;;19.90
63689;BMP280;54895;40.928;14.480;2023-04-07T12:18:24;101458.72;;;20.12
63689;BMP280;54895;40.928;14.480;2023-04-07T12:20:52;101456.88;;;20.15
63689;BMP280;54895;40.928;14.480;2023-04-07T12:23:18;101451.94;;;19.94
63689;BMP280;54895;40.928;14.480;2023-04-07T12:25:44;101456.91;;;19.98
63689;BMP280;54895;40.928;14.480;2023-04-07T12:28:11;101445.47;;;20.07
63689;BMP280;54895;40.928;14.480;2023-04-07T12:30:37;101456.28;;;19.63
63689;BMP280;54895;40.928;14.480;2023-04-07T12:33:04;101455.13;;;19.83
63689;BMP280;54895;40.928;14.480;2023-04-07T12:35:32;101445.19;;;19.42
63689;BMP280;54895;40.928;14.480;2023-04-07T12:37:58;101453.31;;;20.12
63689;BMP280;54895;40.928;14.480;2023-04-07T12:40:25;101441.69;;;20.19
63689;BMP280;54895;40.928;14.480;2023-04-07T12:42:53;101454.66;;;20.66
63689;BMP280;54895;40.928;14.480;2023-04-07T12:45:20;101450.09;;;20.59
63689;BMP280;54895;40.928;14.480;2023-04-07T12:47:46;101447.09;;;20.64
63689;BMP280;54895;40.928;14.480;2023-04-07T12:50:12;101452.31;;;20.34
63689;BMP280;54895;40.928;14.480;2023-04-07T12:52:39;101451.50;;;20.51
63689;BMP280;54895;40.928;14.480;2023-04-07T12:55:06;101442.75;;;20.88
63689;BMP280;54895;40.928;14.480;2023-04-07T12:57:32;101446.63;;;20.49
63689;BMP280;54895;40.928;14.480;2023-04-07T12:59:59;101433.97;;;20.42
63689;BMP280;54895;40.928;14.480;2023-04-07T13:02:25;101421.59;;;19.86
63689;BMP280;54895;40.928;14.480;2023-04-07T13:04:52;101431.16;;;19.87
63689;BMP280;54895;40.928;14.480;2023-04-07T13:07:18;101432.63;;;20.24
63689;BMP280;54895;40.928;14.480;2023-04-07T13:09:44;101423.53;;;20.29
63689;BMP280;54895;40.928;14.480;2023-04-07T13:12:11;101401.22;;;20.48
63689;BMP280;54895;40.928;14.480;2023-04-07T13:14:39;101428.38;;;20.95
63689;BMP280;54895;40.928;14.480;2023-04-07T13:17:07;101417.13;;;20.89
63689;BMP280;54895;40.928;14.480;2023-04-07T13:19:34;101421.84;;;20.43
63689;BMP280;54895;40.928;14.480;2023-04-07T13:22:00;101417.13;;;20.79
63689;BMP280;54895;40.928;14.480;2023-04-07T13:24:28;101409.72;;;20.99
63689;BMP280;54895;40.928;14.480;2023-04-07T13:26:54;101406.13;;;20.68
63689;BMP280;54895;40.928;14.480;2023-04-07T13:29:23;101415.97;;;20.92
63689;BMP280;54895;40.928;14.480;2023-04-07T13:31:49;101422.34;;;20.68
63689;BMP280;54895;40.928;14.480;2023-04-07T13:34:16;101415.16;;;20.99
63689;BMP280;54895;40.928;14.480;2023-04-07T13:36:42;101424.75;;;20.55
63689;BMP280;54895;40.928;14.480;2023-04-07T13:39:09;101420.84;;;21.03
63689;BMP280;54895;40.928;14.480;2023-04-07T13:41:35;101402.59;;;21.13
63689;BMP280;54895;40.928;14.480;2023-04-07T13:44:01;101402.31;;;21.09
63689;BMP280;54895;40.928;14.480;2023-04-07T13:46:28;101416.97;;;20.77
63689;BMP280;54895;40.928;14.480;2023-04-07T13:48:55;101411.69;;;20.25
63689;BMP280;54895;40.928;14.480;2023-04-07T13:51:23;101419.75;;;20.15
63689;BMP280;54895;40.928;14.480;2023-04-07T13:53:50;101413.44;;;20.94
63689;BMP280;54895;40.928;14.480;2023-04-07T13:56:16;101411.69;;;20.70
63689;BMP280;54895;40.928;14.480;2023-04-07T13:58:43;101413.56;;;20.96
63689;BMP280;54895;40.928;14.480;2023-04-07T14:01:09;101413.13;;;20.90
63689;BMP280;54895;40.928;14.480;2023-04-07T14:03:36;101413.41;;;21.32
63689;BMP280;54895;40.928;14.480;2023-04-07T14:06:02;101395.19;;;21.04
63689;BMP280;54895;40.928;14.480;2023-04-07T14:08:29;101405.72;;;20.81
63689;BMP280;54895;40.928;14.480;2023-04-07T14:10:55;101397.13;;;20.56
63689;BMP280;54895;40.928;14.480;2023-04-07T14:13:22;101415.28;;;20.91
63689;BMP280;54895;40.928;14.480;2023-04-07T14:15:49;101396.25;;;20.44
63689;BMP280;54895;40.928;14.480;2023-04-07T14:18:15;101408.03;;;20.94
63689;BMP280;54895;40.928;14.480;2023-04-07T14:20:42;101411.28;;;20.73
63689;BMP280;54895;40.928;14.480;2023-04-07T14:23:08;101409.56;;;20.78
63689;BMP280;54895;40.928;14.480;2023-04-07T14:25:35;101396.91;;;20.71
63689;BMP280;54895;40.928;14.480;2023-04-07T14:28:02;101405.00;;;20.90
63689;BMP280;54895;40.928;14.480;2023-04-07T14:30:28;101411.28;;;20.73
63689;BMP280;54895;40.928;14.480;2023-04-07T14:32:55;101396.22;;;20.25
63689;BMP280;54895;40.928;14.480;2023-04-07T14:35:22;101406.91;;;20.33
63689;BMP280;54895;40.928;14.480;2023-04-07T14:37:48;101404.97;;;20.16
63689;BMP280;54895;40.928;14.480;2023-04-07T14:40:15;101402.13;;;20.14
63689;BMP280;54895;40.928;14.480;2023-04-07T14:42:41;101406.72;;;20.21
63689;BMP280;54895;40.928;14.480;2023-04-07T14:45:08;101398.25;;;20.53
63689;BMP280;54895;40.928;14.480;2023-04-07T14:47:34;101391.66;;;20.82
63689;BMP280;54895;40.928;14.480;2023-04-07T14:50:02;101389.31;;;20.51
63689;BMP280;54895;40.928;14.480;2023-04-07T14:52:28;101380.00;;;20.25
63689;BMP280;54895;40.928;14.480;2023-04-07T14:54:55;101384.84;;;20.36
63689;BMP280;54895;40.928;14.480;2023-04-07T14:57:21;101364.97;;;20.60
63689;BMP280;54895;40.928;14.480;2023-04-07T14:59:48;101382.94;;;20.65
63689;BMP280;54895;40.928;14.480;2023-04-07T15:02:15;101388.47;;;20.67
63689;BMP280;54895;40.928;14.480;2023-04-07T15:04:41;101387.91;;;20.97
63689;BMP280;54895;40.928;14.480;2023-04-07T15:07:08;101375.69;;;21.05
63689;BMP280;54895;40.928;14.480;2023-04-07T15:09:34;101371.47;;;19.66